createdAt,value
2023-02-02T00:02:05.209Z,99655.84
2023-02-02T00:06:17.358Z,99651.98
2023-02-02T00:10:29.104Z,99655.07
2023-02-02T00:14:40.941Z,99647.64
2023-02-02T00:18:45.481Z,99645.25
2023-02-02T00:22:57.620Z,99644.77
2023-02-02T00:27:10.001Z,99647.08
2023-02-02T00:31:22.606Z,99645.56
2023-02-02T00:35:35.321Z,99645.96
2023-02-02T00:39:40.576Z,99647.05
2023-02-02T00:43:52.256Z,99642.25
2023-02-02T00:48:04.532Z,99639.86
2023-02-02T00:52:16.157Z,99640.10
2023-02-02T00:56:28.476Z,99629.62
2023-02-02T01:00:41.030Z,99628.27
2023-02-02T01:04:53.678Z,99624.86
2023-02-02T01:09:05.544Z,99617.63
2023-02-02T01:13:50.701Z,99620.80
2023-02-02T01:17:54.276Z,99617.76
2023-02-02T01:22:06.849Z,99614.54
2023-02-02T01:26:18.752Z,99616.33
2023-02-02T01:30:30.937Z,99612.42
2023-02-02T01:34:42.876Z,99620.60
2023-02-02T01:39:14.077Z,99622.67
2023-02-02T01:43:15.433Z,99624.27
2023-02-02T01:47:27.647Z,99622.38
2023-02-02T01:51:42.798Z,99623.79
2023-02-02T01:55:55.273Z,99627.80
2023-02-02T02:00:06.860Z,99632.69
2023-02-02T02:04:38.152Z,99636.86
2023-02-02T02:08:52.347Z,99639.48
2023-02-02T02:13:04.583Z,99636.79
2023-02-02T02:17:33.357Z,99639.04
2023-02-02T02:21:46.121Z,99637.98
2023-02-02T02:25:56.676Z,99636.62
2023-02-02T02:30:12.149Z,99646.80
2023-02-02T02:34:22.956Z,99649.36
2023-02-02T02:38:40.897Z,99649.17
2023-02-02T02:42:52.765Z,99646.44
2023-02-02T02:47:04.931Z,99647.48
2023-02-02T02:51:17.852Z,99650.38
2023-02-02T02:55:30.261Z,99653.62
2023-02-02T02:59:42.583Z,99660.54
2023-02-02T03:03:53.879Z,99665.55
2023-02-02T03:08:08.664Z,99667.13
2023-02-02T03:12:20.674Z,99673.20
2023-02-02T03:16:51.630Z,99685.66
2023-02-02T03:21:03.522Z,99687.59
2023-02-02T03:25:15.330Z,99692.27
2023-02-02T03:29:26.412Z,99689.98
2023-02-02T03:33:38.551Z,99692.93
2023-02-02T03:37:58.531Z,99691.37
2023-02-02T03:42:05.133Z,99694.34
2023-02-02T03:46:17.946Z,99697.95
2023-02-02T03:50:30.036Z,99698.27
2023-02-02T03:54:42.133Z,99704.29
2023-02-02T03:58:54.702Z,99708.23
2023-02-02T04:03:07.274Z,99714.11
2023-02-02T04:07:32.931Z,99717.44
2023-02-02T04:11:44.653Z,99720.91
2023-02-02T04:15:56.659Z,99728.02
2023-02-02T04:20:03.598Z,99730.96
2023-02-02T04:24:15.350Z,99734.10
2023-02-02T04:28:27.247Z,99734.46
2023-02-02T04:32:39.278Z,99739.50
2023-02-02T04:36:51.672Z,99745.38
2023-02-02T04:40:55.741Z,99748.86
2023-02-02T04:45:08.078Z,99753.35
2023-02-02T04:49:20.469Z,99763.55
2023-02-02T04:53:46.382Z,99770.31
2023-02-02T04:57:58.115Z,99770.16
2023-02-02T05:02:10.273Z,99784.37
2023-02-02T05:06:23.065Z,99791.31
2023-02-02T05:10:35.831Z,99804.77
2023-02-02T05:14:48.108Z,99810.43
2023-02-02T05:18:59.950Z,99823.33
2023-02-02T05:23:12.053Z,99833.58
2023-02-02T05:27:24.451Z,99844.23
2023-02-02T05:31:31.638Z,99859.04
2023-02-02T05:35:44.134Z,99870.85
2023-02-02T05:39:56.704Z,99879.95
2023-02-02T05:44:08.794Z,99888.17
2023-02-02T05:48:12.662Z,99903.05
2023-02-02T05:52:18.055Z,99915.80
2023-02-02T05:56:23.059Z,99925.98
2023-02-02T06:00:35.011Z,99928.49
2023-02-02T06:04:47.163Z,99938.02
2023-02-02T06:08:59.495Z,99954.77
2023-02-02T06:13:16.823Z,99963.45
2023-02-02T06:17:29.162Z,99970.77
2023-02-02T06:21:41.530Z,99983.08
2023-02-02T06:25:53.586Z,99985.67
2023-02-02T06:30:00.831Z,99996.90
2023-02-02T06:34:12.725Z,100006.67
2023-02-02T06:38:25.088Z,100018.89
2023-02-02T06:42:30.864Z,100036.80
2023-02-02T06:46:42.730Z,100035.80
2023-02-02T06:50:54.785Z,100034.03
2023-02-02T06:55:07.124Z,100039.44
2023-02-02T06:59:19.173Z,100051.50
2023-02-02T07:03:31.791Z,100063.66
2023-02-02T07:07:42.512Z,100075.12
2023-02-02T07:11:49.445Z,100088.75
2023-02-02T07:16:01.258Z,100094.60
2023-02-02T07:20:13.261Z,100106.31
2023-02-02T07:24:19.881Z,100113.72
2023-02-02T07:28:35.234Z,100129.06
2023-02-02T07:32:38.412Z,100139.73
2023-02-02T07:36:50.371Z,100148.15
2023-02-02T07:41:02.718Z,100156.71
2023-02-02T07:45:27.021Z,100162.33
2023-02-02T07:49:39.645Z,100169.98
2023-02-02T07:53:50.245Z,100188.91
2023-02-02T07:58:02.436Z,100201.81
2023-02-02T08:02:14.956Z,100216.75
2023-02-02T08:06:27.041Z,100224.22
2023-02-02T08:10:40.303Z,100232.95
2023-02-02T08:14:52.433Z,100238.55
2023-02-02T08:19:04.453Z,100245.03
2023-02-02T08:23:16.405Z,100259.62
2023-02-02T08:27:28.435Z,100275.77
2023-02-02T08:31:40.229Z,100285.89
2023-02-02T08:36:04.662Z,100299.10
2023-02-02T08:40:16.288Z,100309.06
2023-02-02T08:44:42.087Z,100316.61
2023-02-02T08:49:00.146Z,100321.38
2023-02-02T08:53:12.119Z,100331.53
2023-02-02T08:57:23.909Z,100340.36
2023-02-02T09:01:36.496Z,100345.17
2023-02-02T09:05:48.525Z,100357.61
2023-02-02T09:10:00.656Z,100365.85
2023-02-02T09:14:12.818Z,100381.14
2023-02-02T09:18:39.161Z,100396.02
2023-02-02T09:22:50.979Z,100407.92
2023-02-02T09:27:06.389Z,100415.59
2023-02-02T09:31:32.629Z,100424.32
2023-02-02T09:35:46.785Z,100434.73
2023-02-02T09:39:59.103Z,100440.30
2023-02-02T09:44:09.676Z,100452.30
2023-02-02T09:48:21.160Z,100461.50
2023-02-02T09:52:36.221Z,100467.59
2023-02-02T09:56:48.818Z,100471.15
2023-02-02T10:01:04.178Z,100479.14
2023-02-02T10:05:16.189Z,100487.83
2023-02-02T10:09:28.940Z,100495.64
2023-02-02T10:13:41.341Z,100500.52
2023-02-02T10:18:06.087Z,100511.54
2023-02-02T10:22:30.497Z,100523.61
2023-02-02T10:26:45.641Z,100531.27
2023-02-02T10:31:01.352Z,100544.98
2023-02-02T10:35:14.790Z,100553.60
2023-02-02T10:39:25.643Z,100557.65
2023-02-02T10:43:36.326Z,100559.34
2023-02-02T10:47:42.611Z,100564.84
2023-02-02T10:52:00.427Z,100570.81
2023-02-02T10:56:10.430Z,100578.05
2023-02-02T11:00:45.058Z,100589.06
2023-02-02T11:04:55.261Z,100600.42
2023-02-02T11:09:05.500Z,100610.03
2023-02-02T11:13:18.145Z,100618.11
2023-02-02T11:17:30.217Z,100625.76
2023-02-02T11:21:43.442Z,100634.46
2023-02-02T11:25:53.873Z,100640.77
2023-02-02T11:30:06.271Z,100646.67
2023-02-02T11:34:20.459Z,100660.41
2023-02-02T11:38:36.063Z,100663.05
2023-02-02T11:43:07.472Z,100671.56
2023-02-02T11:47:19.006Z,100677.52
2023-02-02T11:51:31.203Z,100684.48
2023-02-02T11:55:43.272Z,100689.70
2023-02-02T12:00:07.337Z,100700.08
2023-02-02T12:04:39.604Z,100704.40
2023-02-02T12:08:51.784Z,100711.77
2023-02-02T12:12:57.704Z,100712.42
2023-02-02T12:17:07.401Z,100712.11
2023-02-02T12:21:18.123Z,100718.92
2023-02-02T12:25:28.788Z,100734.61
2023-02-02T12:29:40.634Z,100741.41
2023-02-02T12:33:55.684Z,100747.95
2023-02-02T12:38:14.765Z,100759.08
2023-02-02T12:42:33.003Z,100770.68
2023-02-02T12:46:44.026Z,100776.85
2023-02-02T12:50:54.582Z,100785.39
2023-02-02T12:55:06.794Z,100807.31
2023-02-02T12:59:19.523Z,100806.73
2023-02-02T13:03:31.869Z,100823.11
2023-02-02T13:07:49.540Z,100836.43
2023-02-02T13:11:55.977Z,100841.15
2023-02-02T13:16:08.025Z,100848.23
2023-02-02T13:20:20.295Z,100855.55
2023-02-02T13:24:32.190Z,100862.05
2023-02-02T13:28:34.514Z,100873.67
2023-02-02T13:32:47.530Z,100881.24
2023-02-02T13:37:00.413Z,100889.23
2023-02-02T13:45:50.842Z,100908.79
2023-02-02T13:50:00.716Z,100914.55
2023-02-02T13:54:13.043Z,100919.27
2023-02-02T13:58:18.677Z,100932.49
2023-02-02T14:02:31.550Z,100950.29
2023-02-02T14:06:44.048Z,100970.29
2023-02-02T14:10:49.664Z,100977.23
2023-02-02T14:15:02.259Z,100993.48
2023-02-02T14:19:12.531Z,101007.74
2023-02-02T14:23:25.652Z,101014.55
2023-02-02T14:27:38.277Z,101019.33
2023-02-02T14:31:48.649Z,101027.36
2023-02-02T14:36:06.775Z,101038.80
2023-02-02T14:40:22.138Z,101053.85
2023-02-02T14:44:33.978Z,101063.34
2023-02-02T14:49:00.105Z,101074.44
2023-02-02T14:53:12.178Z,101084.98
2023-02-02T14:57:27.214Z,101089.09
2023-02-02T15:01:45.853Z,101108.89
2023-02-02T15:06:10.412Z,101121.68
2023-02-02T15:10:22.886Z,101135.58
2023-02-02T15:14:34.406Z,101157.34
2023-02-02T15:18:55.441Z,101164.81
2023-02-02T15:23:07.960Z,101175.08
2023-02-02T15:27:21.962Z,101188.30
2023-02-02T15:31:32.958Z,101206.10
2023-02-02T15:35:45.687Z,101211.88
2023-02-02T15:40:01.789Z,101218.58
2023-02-02T15:44:14.024Z,101236.80
2023-02-02T15:48:28.801Z,101241.84
2023-02-02T15:52:35.499Z,101253.59
2023-02-02T15:57:05.917Z,101264.41
2023-02-02T16:01:13.195Z,101283.98
2023-02-02T16:05:26.197Z,101293.86
2023-02-02T16:09:39.268Z,101309.38
2023-02-02T16:13:55.007Z,101312.45
2023-02-02T16:18:01.220Z,101325.38
2023-02-02T16:22:13.877Z,101331.05
2023-02-02T16:26:32.115Z,101341.87
2023-02-02T16:30:38.335Z,101350.34
2023-02-02T16:34:50.839Z,101355.80
2023-02-02T16:39:05.998Z,101369.27
2023-02-02T16:43:18.687Z,101380.03
2023-02-02T16:51:56.492Z,101391.75
2023-02-02T16:56:03.370Z,101392.45
2023-02-02T17:00:16.103Z,101405.88
2023-02-02T17:04:28.423Z,101404.66
2023-02-02T17:08:36.240Z,101419.34
2023-02-02T17:13:00.452Z,101429.02
2023-02-02T17:17:12.764Z,101428.41
2023-02-02T17:21:25.013Z,101433.63
2023-02-02T17:25:36.643Z,101447.56
2023-02-02T17:29:49.061Z,101452.71
2023-02-02T17:33:55.083Z,101459.20
2023-02-02T17:38:21.874Z,101473.70
2023-02-02T17:42:33.945Z,101481.69
2023-02-02T17:46:41.744Z,101490.88
2023-02-02T17:50:53.826Z,101502.14
2023-02-02T17:54:55.827Z,101514.09
2023-02-02T17:59:08.180Z,101520.27
2023-02-02T18:03:20.577Z,101522.79
2023-02-02T18:07:34.514Z,101530.16
2023-02-02T18:11:47.317Z,101532.96
2023-02-02T18:16:00.257Z,101541.96
2023-02-02T18:20:18.963Z,101551.91
2023-02-02T18:24:26.525Z,101563.11
2023-02-02T18:28:39.065Z,101567.10
2023-02-02T18:32:51.635Z,101570.19
2023-02-02T18:37:17.707Z,101576.71
2023-02-02T18:41:34.960Z,101581.11
2023-02-02T18:45:47.704Z,101585.61
2023-02-02T18:50:00.150Z,101588.39
2023-02-02T18:54:12.428Z,101591.20
2023-02-02T18:58:25.067Z,101603.88
2023-02-02T19:02:30.161Z,101614.01
2023-02-02T19:06:40.461Z,101612.83
2023-02-02T19:10:52.398Z,101611.36
2023-02-02T19:15:12.916Z,101614.52
2023-02-02T19:19:09.035Z,101609.19
2023-02-02T19:23:21.197Z,101614.36
2023-02-02T19:27:32.984Z,101619.24
2023-02-02T19:31:45.562Z,101618.13
2023-02-02T19:36:00.620Z,101623.31
2023-02-02T19:40:13.531Z,101624.23
2023-02-02T19:44:25.769Z,101629.95
2023-02-02T19:48:56.980Z,101625.55
2023-02-02T19:53:08.600Z,101626.76
2023-02-02T19:57:20.571Z,101614.38
2023-02-02T20:01:32.575Z,101622.48
2023-02-02T20:05:39.540Z,101620.24
2023-02-02T20:09:51.304Z,101621.10
2023-02-02T20:14:06.402Z,101643.80
2023-02-02T20:18:08.386Z,101641.20
2023-02-02T20:22:39.260Z,101647.08
2023-02-02T20:26:49.181Z,101651.74
2023-02-02T20:31:04.330Z,101651.77
2023-02-02T20:35:16.180Z,101659.90
2023-02-02T20:39:36.757Z,101661.11
2023-02-02T20:43:48.867Z,101660.78
2023-02-02T20:48:01.207Z,101642.00
2023-02-02T20:52:12.926Z,101650.67
2023-02-02T20:56:20.101Z,101662.06
2023-02-02T21:00:32.820Z,101669.98
2023-02-02T21:04:58.706Z,101683.38
2023-02-02T21:09:05.772Z,101684.67
2023-02-02T21:13:12.239Z,101680.29
2023-02-02T21:17:24.582Z,101684.30
2023-02-02T21:21:36.644Z,101702.73
2023-02-02T21:25:40.698Z,101706.02
2023-02-02T21:29:31.370Z,101715.88
2023-02-02T21:33:43.882Z,101725.07
2023-02-02T21:37:55.995Z,101734.64
2023-02-02T21:42:08.162Z,101733.69
2023-02-02T21:46:20.932Z,101723.02
2023-02-02T21:50:33.197Z,101716.39
2023-02-02T21:54:44.372Z,101706.27
2023-02-02T21:58:55.748Z,101700.23
2023-02-02T22:02:58.443Z,101694.81
2023-02-02T22:07:10.435Z,101698.38
2023-02-02T22:11:22.385Z,101715.39
2023-02-02T22:15:34.542Z,101725.01
2023-02-02T22:19:45.851Z,101730.00
2023-02-02T22:23:58.422Z,101723.17
2023-02-02T22:28:12.563Z,101710.92
2023-02-02T22:32:25.370Z,101714.02
2023-02-02T22:36:30.351Z,101717.90
2023-02-02T22:40:45.573Z,101712.08
2023-02-02T22:44:57.892Z,101714.44
2023-02-02T22:49:10.478Z,101718.64
2023-02-02T22:53:22.826Z,101732.05
2023-02-02T22:57:35.324Z,101738.69
2023-02-02T23:02:06.148Z,101741.61
2023-02-02T23:06:17.640Z,101744.60
2023-02-02T23:10:31.563Z,101748.14
2023-02-02T23:14:43.627Z,101745.73
2023-02-02T23:18:55.701Z,101745.22
2023-02-02T23:23:00.652Z,101744.18
2023-02-02T23:27:12.562Z,101748.98
2023-02-02T23:31:24.446Z,101755.37
2023-02-02T23:35:36.715Z,101757.00
2023-02-02T23:39:48.865Z,101752.78
2023-02-02T23:44:02.950Z,101746.18
2023-02-02T23:48:14.997Z,101741.83
2023-02-02T23:52:40.710Z,101736.32
2023-02-02T23:56:53.038Z,101726.89
